sensor_id;sensor_type;location;lat;lon;timestamp;temperature;humidity
24744;DHT22;12844;52.110;5.548;2024-01-25T00:00:30;18.50;55.80
24744;DHT22;12844;52.110;5.548;2024-01-25T00:02:56;18.60;55.80
24744;DHT22;12844;52.110;5.548;2024-01-25T00:05:21;18.50;55.70
24744;DHT22;12844;52.110;5.548;2024-01-25T00:07:50;18.50;55.70
24744;DHT22;12844;52.110;5.548;2024-01-25T00:10:17;18.50;55.80
24744;DHT22;12844;52.110;5.548;2024-01-25T00:12:43;18.50;55.80
24744;DHT22;12844;52.110;5.548;2024-01-25T00:15:09;18.50;55.80
24744;DHT22;12844;52.110;5.548;2024-01-25T00:17:35;18.50;55.80
24744;DHT22;12844;52.110;5.548;2024-01-25T00:20:01;18.40;55.80
24744;DHT22;12844;52.110;5.548;2024-01-25T00:22:27;18.40;55.90
24744;DHT22;12844;52.110;5.548;2024-01-25T00:24:52;18.40;55.90
24744;DHT22;12844;52.110;5.548;2024-01-25T00:27:18;18.40;55.90
24744;DHT22;12844;52.110;5.548;2024-01-25T00:29:43;18.30;55.90
24744;DHT22;12844;52.110;5.548;2024-01-25T00:37:20;18.30;56.00
24744;DHT22;12844;52.110;5.548;2024-01-25T00:39:46;18.30;56.00
24744;DHT22;12844;52.110;5.548;2024-01-25T00:42:13;18.30;55.90
24744;DHT22;12844;52.110;5.548;2024-01-25T00:44:40;18.30;56.00
24744;DHT22;12844;52.110;5.548;2024-01-25T00:47:06;18.30;56.00
24744;DHT22;12844;52.110;5.548;2024-01-25T00:49:32;18.30;56.00
24744;DHT22;12844;52.110;5.548;2024-01-25T01:07:30;18.20;56.00
24744;DHT22;12844;52.110;5.548;2024-01-25T01:09:56;18.20;56.00
24744;DHT22;12844;52.110;5.548;2024-01-25T01:12:21;18.20;56.00
24744;DHT22;12844;52.110;5.548;2024-01-25T01:14:47;18.20;56.10
24744;DHT22;12844;52.110;5.548;2024-01-25T01:17:13;18.10;56.00
24744;DHT22;12844;52.110;5.548;2024-01-25T01:19:39;18.10;56.10
24744;DHT22;12844;52.110;5.548;2024-01-25T01:42:47;18.10;55.90
24744;DHT22;12844;52.110;5.548;2024-01-25T01:45:13;18.10;56.00
24744;DHT22;12844;52.110;5.548;2024-01-25T01:47:39;18.10;56.00
24744;DHT22;12844;52.110;5.548;2024-01-25T01:50:06;18.10;56.10
24744;DHT22;12844;52.110;5.548;2024-01-25T01:52:32;18.10;56.10
24744;DHT22;12844;52.110;5.548;2024-01-25T01:54:58;18.10;56.10
24744;DHT22;12844;52.110;5.548;2024-01-25T01:57:24;18.10;56.10
24744;DHT22;12844;52.110;5.548;2024-01-25T01:59:50;18.10;56.10
24744;DHT22;12844;52.110;5.548;2024-01-25T02:02:15;18.10;56.10
24744;DHT22;12844;52.110;5.548;2024-01-25T02:04:43;18.10;56.10
24744;DHT22;12844;52.110;5.548;2024-01-25T02:07:09;18.10;56.10
24744;DHT22;12844;52.110;5.548;2024-01-25T02:09:35;18.10;56.10
24744;DHT22;12844;52.110;5.548;2024-01-25T02:12:04;18.10;56.10
24744;DHT22;12844;52.110;5.548;2024-01-25T02:14:30;18.10;56.00
24744;DHT22;12844;52.110;5.548;2024-01-25T02:16:56;18.10;55.90
24744;DHT22;12844;52.110;5.548;2024-01-25T02:19:22;18.10;55.90
24744;DHT22;12844;52.110;5.548;2024-01-25T02:21:49;18.10;55.80
24744;DHT22;12844;52.110;5.548;2024-01-25T02:24:16;18.10;55.80
24744;DHT22;12844;52.110;5.548;2024-01-25T02:26:42;18.10;55.80
24744;DHT22;12844;52.110;5.548;2024-01-25T02:29:07;18.10;55.80
24744;DHT22;12844;52.110;5.548;2024-01-25T02:31:35;18.10;55.80
24744;DHT22;12844;52.110;5.548;2024-01-25T02:34:00;18.10;55.80
24744;DHT22;12844;52.110;5.548;2024-01-25T02:36:26;18.10;56.40
24744;DHT22;12844;52.110;5.548;2024-01-25T02:38:52;18.10;55.80
24744;DHT22;12844;52.110;5.548;2024-01-25T02:41:17;18.10;55.80
24744;DHT22;12844;52.110;5.548;2024-01-25T02:43:43;18.10;55.80
24744;DHT22;12844;52.110;5.548;2024-01-25T02:46:08;18.00;55.80
24744;DHT22;12844;52.110;5.548;2024-01-25T02:48:34;18.00;55.80
24744;DHT22;12844;52.110;5.548;2024-01-25T02:51:00;18.00;55.80
24744;DHT22;12844;52.110;5.548;2024-01-25T02:53:27;18.10;55.70
24744;DHT22;12844;52.110;5.548;2024-01-25T02:55:52;18.00;55.70
24744;DHT22;12844;52.110;5.548;2024-01-25T02:58:18;18.00;55.70
24744;DHT22;12844;52.110;5.548;2024-01-25T03:00:43;18.00;55.70
24744;DHT22;12844;52.110;5.548;2024-01-25T03:03:09;18.10;55.70
24744;DHT22;12844;52.110;5.548;2024-01-25T03:05:34;18.00;55.60
24744;DHT22;12844;52.110;5.548;2024-01-25T03:08:00;18.10;55.80
24744;DHT22;12844;52.110;5.548;2024-01-25T03:10:26;18.00;55.70
24744;DHT22;12844;52.110;5.548;2024-01-25T03:12:51;18.00;55.70
24744;DHT22;12844;52.110;5.548;2024-01-25T03:15:17;18.00;55.70
24744;DHT22;12844;52.110;5.548;2024-01-25T03:17:43;18.00;55.80
24744;DHT22;12844;52.110;5.548;2024-01-25T03:20:09;17.90;55.70
24744;DHT22;12844;52.110;5.548;2024-01-25T03:22:35;17.90;55.70
24744;DHT22;12844;52.110;5.548;2024-01-25T03:25:00;18.00;55.80
24744;DHT22;12844;52.110;5.548;2024-01-25T03:27:26;18.00;55.80
24744;DHT22;12844;52.110;5.548;2024-01-25T03:29:52;17.90;55.70
24744;DHT22;12844;52.110;5.548;2024-01-25T03:32:17;17.90;55.70
24744;DHT22;12844;52.110;5.548;2024-01-25T03:34:43;17.90;55.80
24744;DHT22;12844;52.110;5.548;2024-01-25T03:37:09;17.90;55.80
24744;DHT22;12844;52.110;5.548;2024-01-25T03:39:35;17.90;56.40
24744;DHT22;12844;52.110;5.548;2024-01-25T03:42:00;17.90;55.80
24744;DHT22;12844;52.110;5.548;2024-01-25T03:44:26;17.90;55.80
24744;DHT22;12844;52.110;5.548;2024-01-25T03:46:51;17.80;55.70
24744;DHT22;12844;52.110;5.548;2024-01-25T03:49:17;17.80;55.70
24744;DHT22;12844;52.110;5.548;2024-01-25T03:51:44;17.80;55.70
24744;DHT22;12844;52.110;5.548;2024-01-25T03:54:09;17.80;55.70
24744;DHT22;12844;52.110;5.548;2024-01-25T03:56:35;17.80;55.70
24744;DHT22;12844;52.110;5.548;2024-01-25T03:59:01;17.80;55.70
24744;DHT22;12844;52.110;5.548;2024-01-25T04:01:26;17.80;55.70
24744;DHT22;12844;52.110;5.548;2024-01-25T04:03:52;17.80;55.70
24744;DHT22;12844;52.110;5.548;2024-01-25T04:06:17;17.80;55.70
24744;DHT22;12844;52.110;5.548;2024-01-25T04:08:43;17.80;55.80
24744;DHT22;12844;52.110;5.548;2024-01-25T04:11:08;17.80;55.80
24744;DHT22;12844;52.110;5.548;2024-01-25T04:13:35;17.80;55.80
24744;DHT22;12844;52.110;5.548;2024-01-25T04:16:00;17.80;55.70
24744;DHT22;12844;52.110;5.548;2024-01-25T04:18:26;17.80;55.70
24744;DHT22;12844;52.110;5.548;2024-01-25T04:20:52;17.80;55.70
24744;DHT22;12844;52.110;5.548;2024-01-25T04:23:17;17.80;55.70
24744;DHT22;12844;52.110;5.548;2024-01-25T04:25:43;17.70;55.70
24744;DHT22;12844;52.110;5.548;2024-01-25T04:28:09;17.70;55.60
24744;DHT22;12844;52.110;5.548;2024-01-25T04:30:35;17.70;55.60
24744;DHT22;12844;52.110;5.548;2024-01-25T04:33:00;17.80;55.60
24744;DHT22;12844;52.110;5.548;2024-01-25T04:35:27;17.70;55.60
24744;DHT22;12844;52.110;5.548;2024-01-25T04:37:52;17.70;55.60
24744;DHT22;12844;52.110;5.548;2024-01-25T04:40:18;17.70;55.60
24744;DHT22;12844;52.110;5.548;2024-01-25T04:42:44;17.70;55.60
24744;DHT22;12844;52.110;5.548;2024-01-25T04:45:10;17.70;55.60
24744;DHT22;12844;52.110;5.548;2024-01-25T04:47:37;17.70;55.60
24744;DHT22;12844;52.110;5.548;2024-01-25T04:50:04;17.80;55.60
24744;DHT22;12844;52.110;5.548;2024-01-25T04:52:30;17.70;55.50
24744;DHT22;12844;52.110;5.548;2024-01-25T04:54:55;17.70;55.50
24744;DHT22;12844;52.110;5.548;2024-01-25T04:57:21;17.70;55.40
24744;DHT22;12844;52.110;5.548;2024-01-25T04:59:46;17.70;55.30
24744;DHT22;12844;52.110;5.548;2024-01-25T05:02:12;17.70;55.30
24744;DHT22;12844;52.110;5.548;2024-01-25T05:04:37;17.70;55.30
24744;DHT22;12844;52.110;5.548;2024-01-25T05:07:03;17.70;55.90
24744;DHT22;12844;52.110;5.548;2024-01-25T05:09:28;17.70;55.30
24744;DHT22;12844;52.110;5.548;2024-01-25T05:11:54;17.60;55.20
24744;DHT22;12844;52.110;5.548;2024-01-25T05:14:24;17.60;55.30
24744;DHT22;12844;52.110;5.548;2024-01-25T05:16:49;17.60;55.30
24744;DHT22;12844;52.110;5.548;2024-01-25T05:19:15;17.60;55.30
24744;DHT22;12844;52.110;5.548;2024-01-25T05:21:40;17.60;55.30
24744;DHT22;12844;52.110;5.548;2024-01-25T05:24:06;17.60;55.30
24744;DHT22;12844;52.110;5.548;2024-01-25T05:26:33;17.50;55.80
24744;DHT22;12844;52.110;5.548;2024-01-25T05:28:58;17.50;55.20
24744;DHT22;12844;52.110;5.548;2024-01-25T05:31:24;17.50;55.20
24744;DHT22;12844;52.110;5.548;2024-01-25T05:33:49;17.50;55.20
24744;DHT22;12844;52.110;5.548;2024-01-25T05:36:15;17.50;55.20
24744;DHT22;12844;52.110;5.548;2024-01-25T05:38:40;17.50;55.30
24744;DHT22;12844;52.110;5.548;2024-01-25T05:41:06;17.40;55.10
24744;DHT22;12844;52.110;5.548;2024-01-25T05:43:33;17.50;55.20
24744;DHT22;12844;52.110;5.548;2024-01-25T05:45:58;17.50;55.10
24744;DHT22;12844;52.110;5.548;2024-01-25T05:48:24;17.50;55.10
24744;DHT22;12844;52.110;5.548;2024-01-25T05:50:49;17.40;55.10
24744;DHT22;12844;52.110;5.548;2024-01-25T05:53:15;17.40;55.10
24744;DHT22;12844;52.110;5.548;2024-01-25T05:55:44;17.40;55.10
24744;DHT22;12844;52.110;5.548;2024-01-25T05:58:09;17.40;55.10
24744;DHT22;12844;52.110;5.548;2024-01-25T06:00:35;17.40;55.10
24744;DHT22;12844;52.110;5.548;2024-01-25T06:03:01;17.40;55.10
24744;DHT22;12844;52.110;5.548;2024-01-25T06:05:26;17.40;55.10
24744;DHT22;12844;52.110;5.548;2024-01-25T06:07:52;17.40;55.10
24744;DHT22;12844;52.110;5.548;2024-01-25T06:10:17;17.40;55.10
24744;DHT22;12844;52.110;5.548;2024-01-25T06:12:43;17.40;55.10
24744;DHT22;12844;52.110;5.548;2024-01-25T06:15:09;17.40;55.10
24744;DHT22;12844;52.110;5.548;2024-01-25T06:17:34;17.30;55.00
24744;DHT22;12844;52.110;5.548;2024-01-25T06:20:00;17.40;55.10
24744;DHT22;12844;52.110;5.548;2024-01-25T06:22:26;17.40;55.10
24744;DHT22;12844;52.110;5.548;2024-01-25T06:24:51;17.30;55.00
24744;DHT22;12844;52.110;5.548;2024-01-25T06:27:17;17.40;55.00
24744;DHT22;12844;52.110;5.548;2024-01-25T06:29:42;17.40;54.90
24744;DHT22;12844;52.110;5.548;2024-01-25T06:32:09;17.30;55.00
24744;DHT22;12844;52.110;5.548;2024-01-25T06:34:35;17.40;55.00
24744;DHT22;12844;52.110;5.548;2024-01-25T06:37:00;17.30;54.90
24744;DHT22;12844;52.110;5.548;2024-01-25T06:39:26;17.30;55.00
24744;DHT22;12844;52.110;5.548;2024-01-25T06:41:52;17.40;54.90
24744;DHT22;12844;52.110;5.548;2024-01-25T06:44:17;17.30;54.90
24744;DHT22;12844;52.110;5.548;2024-01-25T06:46:43;17.30;54.80
24744;DHT22;12844;52.110;5.548;2024-01-25T06:49:09;17.30;54.80
24744;DHT22;12844;52.110;5.548;2024-01-25T06:51:34;17.30;54.90
24744;DHT22;12844;52.110;5.548;2024-01-25T06:54:00;17.30;54.90
24744;DHT22;12844;52.110;5.548;2024-01-25T06:56:25;17.20;54.90
24744;DHT22;12844;52.110;5.548;2024-01-25T06:58:51;17.20;54.80
24744;DHT22;12844;52.110;5.548;2024-01-25T07:01:23;17.30;54.90
24744;DHT22;12844;52.110;5.548;2024-01-25T07:03:48;17.20;54.90
24744;DHT22;12844;52.110;5.548;2024-01-25T07:06:18;17.30;54.90
24744;DHT22;12844;52.110;5.548;2024-01-25T07:08:44;17.20;55.00
24744;DHT22;12844;52.110;5.548;2024-01-25T07:11:09;17.20;55.00
24744;DHT22;12844;52.110;5.548;2024-01-25T07:13:35;17.20;54.90
24744;DHT22;12844;52.110;5.548;2024-01-25T07:16:01;17.20;54.90
24744;DHT22;12844;52.110;5.548;2024-01-25T07:18:27;17.20;54.90
24744;DHT22;12844;52.110;5.548;2024-01-25T07:20:52;17.20;54.90
24744;DHT22;12844;52.110;5.548;2024-01-25T07:23:18;17.20;54.90
24744;DHT22;12844;52.110;5.548;2024-01-25T07:25:43;17.20;54.90
24744;DHT22;12844;52.110;5.548;2024-01-25T07:28:09;17.20;54.90
24744;DHT22;12844;52.110;5.548;2024-01-25T07:30:35;17.20;54.90
24744;DHT22;12844;52.110;5.548;2024-01-25T07:33:00;17.20;55.00
24744;DHT22;12844;52.110;5.548;2024-01-25T07:35:26;17.20;55.60
24744;DHT22;12844;52.110;5.548;2024-01-25T07:37:52;17.20;55.00
24744;DHT22;12844;52.110;5.548;2024-01-25T07:40:18;17.10;54.80
24744;DHT22;12844;52.110;5.548;2024-01-25T07:42:43;17.10;54.80
24744;DHT22;12844;52.110;5.548;2024-01-25T07:45:09;17.10;54.80
24744;DHT22;12844;52.110;5.548;2024-01-25T07:47:35;17.10;54.90
24744;DHT22;12844;52.110;5.548;2024-01-25T07:50:00;17.10;54.90
24744;DHT22;12844;52.110;5.548;2024-01-25T07:52:26;17.10;54.90
24744;DHT22;12844;52.110;5.548;2024-01-25T07:54:52;17.10;54.80
24744;DHT22;12844;52.110;5.548;2024-01-25T07:57:18;17.10;54.90
24744;DHT22;12844;52.110;5.548;2024-01-25T07:59:44;17.20;54.90
24744;DHT22;12844;52.110;5.548;2024-01-25T08:02:10;17.20;54.90
24744;DHT22;12844;52.110;5.548;2024-01-25T08:04:36;17.20;55.10
24744;DHT22;12844;52.110;5.548;2024-01-25T08:07:02;17.30;55.70
24744;DHT22;12844;52.110;5.548;2024-01-25T08:09:27;17.30;55.00
24744;DHT22;12844;52.110;5.548;2024-01-25T08:11:53;17.40;55.20
24744;DHT22;12844;52.110;5.548;2024-01-25T08:14:18;17.70;55.30
24744;DHT22;12844;52.110;5.548;2024-01-25T08:16:44;17.90;54.80
24744;DHT22;12844;52.110;5.548;2024-01-25T08:19:10;18.00;54.80
24744;DHT22;12844;52.110;5.548;2024-01-25T08:21:36;18.20;54.50
24744;DHT22;12844;52.110;5.548;2024-01-25T08:24:02;18.30;54.50
24744;DHT22;12844;52.110;5.548;2024-01-25T08:26:28;18.40;54.30
24744;DHT22;12844;52.110;5.548;2024-01-25T08:28:53;18.40;54.40
24744;DHT22;12844;52.110;5.548;2024-01-25T08:31:19;18.50;54.40
24744;DHT22;12844;52.110;5.548;2024-01-25T08:33:44;18.50;54.30
24744;DHT22;12844;52.110;5.548;2024-01-25T08:36:13;18.60;54.20
24744;DHT22;12844;52.110;5.548;2024-01-25T08:38:42;18.60;54.10
24744;DHT22;12844;52.110;5.548;2024-01-25T08:41:07;18.60;54.80
24744;DHT22;12844;52.110;5.548;2024-01-25T08:43:33;18.60;54.50
24744;DHT22;12844;52.110;5.548;2024-01-25T08:45:58;18.50;54.60
24744;DHT22;12844;52.110;5.548;2024-01-25T08:48:25;18.60;54.40
24744;DHT22;12844;52.110;5.548;2024-01-25T08:50:50;18.60;54.50
24744;DHT22;12844;52.110;5.548;2024-01-25T08:53:19;18.60;54.60
24744;DHT22;12844;52.110;5.548;2024-01-25T08:55:46;18.70;54.60
24744;DHT22;12844;52.110;5.548;2024-01-25T08:58:12;18.80;54.60
24744;DHT22;12844;52.110;5.548;2024-01-25T09:00:38;18.90;55.20
24744;DHT22;12844;52.110;5.548;2024-01-25T09:03:03;19.00;54.40
24744;DHT22;12844;52.110;5.548;2024-01-25T09:05:29;19.00;54.30
24744;DHT22;12844;52.110;5.548;2024-01-25T09:07:56;19.00;54.40
24744;DHT22;12844;52.110;5.548;2024-01-25T09:10:22;19.10;54.40
24744;DHT22;12844;52.110;5.548;2024-01-25T09:12:47;19.10;54.30
24744;DHT22;12844;52.110;5.548;2024-01-25T09:15:13;19.10;54.20
24744;DHT22;12844;52.110;5.548;2024-01-25T09:17:39;19.10;54.20
24744;DHT22;12844;52.110;5.548;2024-01-25T09:20:06;19.10;54.00
24744;DHT22;12844;52.110;5.548;2024-01-25T09:22:32;19.10;54.20
24744;DHT22;12844;52.110;5.548;2024-01-25T09:24:57;19.00;54.20
24744;DHT22;12844;52.110;5.548;2024-01-25T09:27:23;19.00;54.30
24744;DHT22;12844;52.110;5.548;2024-01-25T09:29:48;18.90;54.30
24744;DHT22;12844;52.110;5.548;2024-01-25T09:32:14;19.00;54.40
24744;DHT22;12844;52.110;5.548;2024-01-25T09:34:39;18.90;54.40
24744;DHT22;12844;52.110;5.548;2024-01-25T09:37:05;18.90;54.40
24744;DHT22;12844;52.110;5.548;2024-01-25T09:39:31;18.90;54.40
24744;DHT22;12844;52.110;5.548;2024-01-25T09:41:57;18.90;54.40
24744;DHT22;12844;52.110;5.548;2024-01-25T09:44:23;18.90;54.40
24744;DHT22;12844;52.110;5.548;2024-01-25T09:46:49;18.80;54.50
24744;DHT22;12844;52.110;5.548;2024-01-25T09:49:16;18.80;54.50
24744;DHT22;12844;52.110;5.548;2024-01-25T09:51:43;18.70;54.50
24744;DHT22;12844;52.110;5.548;2024-01-25T09:54:09;18.70;54.60
24744;DHT22;12844;52.110;5.548;2024-01-25T09:56:35;18.70;54.40
24744;DHT22;12844;52.110;5.548;2024-01-25T09:59:01;18.70;54.50
24744;DHT22;12844;52.110;5.548;2024-01-25T10:01:27;18.70;54.40
24744;DHT22;12844;52.110;5.548;2024-01-25T10:03:54;18.70;54.50
24744;DHT22;12844;52.110;5.548;2024-01-25T10:06:21;18.70;54.50
24744;DHT22;12844;52.110;5.548;2024-01-25T10:08:48;18.70;54.50
24744;DHT22;12844;52.110;5.548;2024-01-25T10:11:14;18.70;54.60
24744;DHT22;12844;52.110;5.548;2024-01-25T10:13:47;18.70;54.50
24744;DHT22;12844;52.110;5.548;2024-01-25T10:16:18;18.70;54.50
24744;DHT22;12844;52.110;5.548;2024-01-25T10:18:46;18.70;54.50
24744;DHT22;12844;52.110;5.548;2024-01-25T10:21:13;18.70;54.50
24744;DHT22;12844;52.110;5.548;2024-01-25T10:23:39;18.70;54.40
24744;DHT22;12844;52.110;5.548;2024-01-25T10:26:05;18.70;54.40
24744;DHT22;12844;52.110;5.548;2024-01-25T10:28:33;18.70;54.50
24744;DHT22;12844;52.110;5.548;2024-01-25T10:31:00;18.70;54.50
24744;DHT22;12844;52.110;5.548;2024-01-25T10:33:27;18.70;54.50
24744;DHT22;12844;52.110;5.548;2024-01-25T10:35:57;18.70;54.50
24744;DHT22;12844;52.110;5.548;2024-01-25T10:38:34;18.70;54.50
24744;DHT22;12844;52.110;5.548;2024-01-25T10:41:02;18.70;54.50
24744;DHT22;12844;52.110;5.548;2024-01-25T10:43:28;18.60;54.50
24744;DHT22;12844;52.110;5.548;2024-01-25T10:45:56;18.60;54.50
24744;DHT22;12844;52.110;5.548;2024-01-25T10:48:24;18.60;54.40
24744;DHT22;12844;52.110;5.548;2024-01-25T10:50:51;18.60;54.50
24744;DHT22;12844;52.110;5.548;2024-01-25T10:53:18;18.60;54.50
24744;DHT22;12844;52.110;5.548;2024-01-25T10:55:45;18.60;54.60
24744;DHT22;12844;52.110;5.548;2024-01-25T10:58:13;18.60;54.60
24744;DHT22;12844;52.110;5.548;2024-01-25T11:00:39;18.60;54.80
24744;DHT22;12844;52.110;5.548;2024-01-25T11:03:05;18.50;54.70
24744;DHT22;12844;52.110;5.548;2024-01-25T11:05:31;18.50;54.80
24744;DHT22;12844;52.110;5.548;2024-01-25T11:07:58;18.50;54.90
24744;DHT22;12844;52.110;5.548;2024-01-25T11:10:27;18.50;54.80
24744;DHT22;12844;52.110;5.548;2024-01-25T11:15:33;18.60;54.70
24744;DHT22;12844;52.110;5.548;2024-01-25T11:18:01;18.60;54.70
24744;DHT22;12844;52.110;5.548;2024-01-25T11:20:28;18.60;54.80
24744;DHT22;12844;52.110;5.548;2024-01-25T11:23:04;18.50;55.00
24744;DHT22;12844;52.110;5.548;2024-01-25T11:25:32;18.50;55.20
24744;DHT22;12844;52.110;5.548;2024-01-25T11:27:58;18.50;55.40
24744;DHT22;12844;52.110;5.548;2024-01-25T11:30:26;18.60;55.20
24744;DHT22;12844;52.110;5.548;2024-01-25T11:32:52;18.60;55.20
24744;DHT22;12844;52.110;5.548;2024-01-25T11:35:18;18.60;55.10
24744;DHT22;12844;52.110;5.548;2024-01-25T11:37:47;18.60;55.00
24744;DHT22;12844;52.110;5.548;2024-01-25T11:40:14;18.60;55.00
24744;DHT22;12844;52.110;5.548;2024-01-25T11:42:41;18.60;54.90
24744;DHT22;12844;52.110;5.548;2024-01-25T11:45:09;18.60;55.00
24744;DHT22;12844;52.110;5.548;2024-01-25T11:47:35;18.60;54.80
24744;DHT22;12844;52.110;5.548;2024-01-25T11:50:02;18.60;55.00
24744;DHT22;12844;52.110;5.548;2024-01-25T11:52:28;18.60;54.90
24744;DHT22;12844;52.110;5.548;2024-01-25T11:54:54;18.60;54.90
24744;DHT22;12844;52.110;5.548;2024-01-25T11:57:20;18.70;54.90
24744;DHT22;12844;52.110;5.548;2024-01-25T11:59:46;18.50;54.80
24744;DHT22;12844;52.110;5.548;2024-01-25T12:02:13;18.50;54.90
24744;DHT22;12844;52.110;5.548;2024-01-25T12:04:39;18.40;55.00
24744;DHT22;12844;52.110;5.548;2024-01-25T12:07:05;18.50;55.00
24744;DHT22;12844;52.110;5.548;2024-01-25T12:09:32;18.50;55.00
24744;DHT22;12844;52.110;5.548;2024-01-25T12:11:57;18.40;55.00
24744;DHT22;12844;52.110;5.548;2024-01-25T12:14:25;18.40;55.10
24744;DHT22;12844;52.110;5.548;2024-01-25T12:16:51;18.40;55.10
24744;DHT22;12844;52.110;5.548;2024-01-25T12:19:16;18.40;55.00
24744;DHT22;12844;52.110;5.548;2024-01-25T12:21:45;18.40;55.10
24744;DHT22;12844;52.110;5.548;2024-01-25T12:24:10;18.40;55.00
24744;DHT22;12844;52.110;5.548;2024-01-25T12:26:37;18.40;55.10
24744;DHT22;12844;52.110;5.548;2024-01-25T12:29:02;18.40;55.00
24744;DHT22;12844;52.110;5.548;2024-01-25T12:31:28;18.40;55.60
24744;DHT22;12844;52.110;5.548;2024-01-25T12:33:54;18.40;54.80
24744;DHT22;12844;52.110;5.548;2024-01-25T12:36:19;18.40;55.00
24744;DHT22;12844;52.110;5.548;2024-01-25T12:38:45;18.40;54.90
24744;DHT22;12844;52.110;5.548;2024-01-25T12:41:10;18.40;54.90
24744;DHT22;12844;52.110;5.548;2024-01-25T12:43:36;18.40;54.90
24744;DHT22;12844;52.110;5.548;2024-01-25T12:46:02;18.40;54.80
24744;DHT22;12844;52.110;5.548;2024-01-25T12:48:27;18.40;54.90
24744;DHT22;12844;52.110;5.548;2024-01-25T12:50:53;18.40;54.90
24744;DHT22;12844;52.110;5.548;2024-01-25T12:53:19;18.40;54.90
24744;DHT22;12844;52.110;5.548;2024-01-25T12:55:44;18.40;54.70
24744;DHT22;12844;52.110;5.548;2024-01-25T12:58:10;18.40;54.80
24744;DHT22;12844;52.110;5.548;2024-01-25T13:00:35;18.40;54.80
24744;DHT22;12844;52.110;5.548;2024-01-25T13:03:01;18.40;54.70
24744;DHT22;12844;52.110;5.548;2024-01-25T13:05:27;18.40;54.80
24744;DHT22;12844;52.110;5.548;2024-01-25T13:07:53;18.50;54.80
24744;DHT22;12844;52.110;5.548;2024-01-25T13:10:18;18.40;54.60
24744;DHT22;12844;52.110;5.548;2024-01-25T13:12:44;18.40;54.50
24744;DHT22;12844;52.110;5.548;2024-01-25T13:15:10;18.40;55.20
24744;DHT22;12844;52.110;5.548;2024-01-25T13:17:35;18.40;54.50
24744;DHT22;12844;52.110;5.548;2024-01-25T13:20:02;18.40;54.70
24744;DHT22;12844;52.110;5.548;2024-01-25T13:22:28;18.40;54.50
24744;DHT22;12844;52.110;5.548;2024-01-25T13:24:55;18.40;54.40
24744;DHT22;12844;52.110;5.548;2024-01-25T13:27:21;18.40;54.40
24744;DHT22;12844;52.110;5.548;2024-01-25T13:29:46;18.40;54.30
24744;DHT22;12844;52.110;5.548;2024-01-25T13:32:12;18.40;54.50
24744;DHT22;12844;52.110;5.548;2024-01-25T13:34:37;18.30;54.80
24744;DHT22;12844;52.110;5.548;2024-01-25T13:37:03;18.40;54.90
24744;DHT22;12844;52.110;5.548;2024-01-25T13:39:28;18.30;54.80
24744;DHT22;12844;52.110;5.548;2024-01-25T13:41:54;18.30;54.80
24744;DHT22;12844;52.110;5.548;2024-01-25T13:44:22;18.30;54.80
24744;DHT22;12844;52.110;5.548;2024-01-25T13:46:47;18.30;54.90
24744;DHT22;12844;52.110;5.548;2024-01-25T13:49:13;18.30;55.00
24744;DHT22;12844;52.110;5.548;2024-01-25T13:51:38;18.20;54.90
24744;DHT22;12844;52.110;5.548;2024-01-25T13:54:04;18.20;54.90
24744;DHT22;12844;52.110;5.548;2024-01-25T13:56:30;18.10;54.90
24744;DHT22;12844;52.110;5.548;2024-01-25T13:58:55;18.20;54.90
24744;DHT22;12844;52.110;5.548;2024-01-25T14:01:21;18.10;54.90
24744;DHT22;12844;52.110;5.548;2024-01-25T14:03:46;18.10;55.00
24744;DHT22;12844;52.110;5.548;2024-01-25T14:06:12;18.10;54.90
24744;DHT22;12844;52.110;5.548;2024-01-25T14:08:37;18.10;54.90
24744;DHT22;12844;52.110;5.548;2024-01-25T14:11:04;18.10;54.90
24744;DHT22;12844;52.110;5.548;2024-01-25T14:13:31;18.10;54.90
24744;DHT22;12844;52.110;5.548;2024-01-25T14:15:57;18.10;54.80
24744;DHT22;12844;52.110;5.548;2024-01-25T14:18:24;18.10;55.50
24744;DHT22;12844;52.110;5.548;2024-01-25T14:20:50;18.10;55.00
24744;DHT22;12844;52.110;5.548;2024-01-25T14:23:15;18.10;55.00
24744;DHT22;12844;52.110;5.548;2024-01-25T14:25:41;18.00;54.90
24744;DHT22;12844;52.110;5.548;2024-01-25T14:28:06;18.10;55.00
24744;DHT22;12844;52.110;5.548;2024-01-25T14:30:32;18.00;54.90
24744;DHT22;12844;52.110;5.548;2024-01-25T14:32:57;18.00;55.00
24744;DHT22;12844;52.110;5.548;2024-01-25T14:35:23;18.00;55.00
24744;DHT22;12844;52.110;5.548;2024-01-25T14:37:57;17.90;54.90
24744;DHT22;12844;52.110;5.548;2024-01-25T14:40:24;18.00;54.90
24744;DHT22;12844;52.110;5.548;2024-01-25T14:42:49;17.90;54.90
24744;DHT22;12844;52.110;5.548;2024-01-25T14:45:15;18.00;54.80
24744;DHT22;12844;52.110;5.548;2024-01-25T14:47:41;18.00;54.70
24744;DHT22;12844;52.110;5.548;2024-01-25T14:50:07;18.00;54.80
24744;DHT22;12844;52.110;5.548;2024-01-25T14:52:32;17.90;54.90
24744;DHT22;12844;52.110;5.548;2024-01-25T14:55:00;18.00;55.10
24744;DHT22;12844;52.110;5.548;2024-01-25T14:57:26;18.00;55.00
24744;DHT22;12844;52.110;5.548;2024-01-25T14:59:51;18.00;55.10
24744;DHT22;12844;52.110;5.548;2024-01-25T15:02:17;18.00;55.40
24744;DHT22;12844;52.110;5.548;2024-01-25T15:04:43;18.00;55.40
24744;DHT22;12844;52.110;5.548;2024-01-25T15:07:08;18.00;55.40
24744;DHT22;12844;52.110;5.548;2024-01-25T15:09:34;17.90;55.40
24744;DHT22;12844;52.110;5.548;2024-01-25T15:11:59;18.00;55.60
24744;DHT22;12844;52.110;5.548;2024-01-25T15:14:25;17.90;55.40
24744;DHT22;12844;52.110;5.548;2024-01-25T15:16:50;18.00;55.40
24744;DHT22;12844;52.110;5.548;2024-01-25T15:19:16;18.00;55.40
24744;DHT22;12844;52.110;5.548;2024-01-25T15:21:42;18.00;55.30
24744;DHT22;12844;52.110;5.548;2024-01-25T15:24:07;18.00;55.30
24744;DHT22;12844;52.110;5.548;2024-01-25T15:26:33;18.00;55.40
24744;DHT22;12844;52.110;5.548;2024-01-25T15:28:58;17.90;55.40
24744;DHT22;12844;52.110;5.548;2024-01-25T15:31:24;17.90;55.50
24744;DHT22;12844;52.110;5.548;2024-01-25T15:33:50;18.00;55.60
24744;DHT22;12844;52.110;5.548;2024-01-25T15:36:16;17.90;55.50
24744;DHT22;12844;52.110;5.548;2024-01-25T15:38:43;17.90;55.40
24744;DHT22;12844;52.110;5.548;2024-01-25T15:41:10;17.90;55.60
24744;DHT22;12844;52.110;5.548;2024-01-25T15:43:35;18.00;55.70
24744;DHT22;12844;52.110;5.548;2024-01-25T15:46:01;18.00;55.60
24744;DHT22;12844;52.110;5.548;2024-01-25T15:48:26;17.90;55.70
24744;DHT22;12844;52.110;5.548;2024-01-25T15:50:52;18.00;55.80
24744;DHT22;12844;52.110;5.548;2024-01-25T15:53:18;17.90;56.80
24744;DHT22;12844;52.110;5.548;2024-01-25T15:55:43;18.00;56.80
24744;DHT22;12844;52.110;5.548;2024-01-25T15:58:10;18.10;56.70
24744;DHT22;12844;52.110;5.548;2024-01-25T16:00:36;18.30;56.40
24744;DHT22;12844;52.110;5.548;2024-01-25T16:03:01;18.30;56.40
24744;DHT22;12844;52.110;5.548;2024-01-25T16:05:27;18.50;56.00